Flight Track Log - Related Links

Times and Time Zones

All times are in EDT time to prevent confusion due to time zone crossing. See the N143DE flight status page for this flight to view local times or setup timezone preferences in your user account.

Time Position Orientation Groundspeed Altitude Reporting Facility
EDT Latitude Longitude Course Direction KTS MPH feet Rate Location/Type
Sat 06:18:02 AM 34.0333 -84.5833 270° West 149 171 3,800  Level Atlanta TRACON
Sat 06:18:56 AM 34.0333 -84.6167 270° West 119 137 5,600 1,955 Climbing Atlanta TRACON
Sat 06:19:31 AM 34.0392 -84.6456 284° West 127 146 6,700 1,895 Climbing Atlanta Center
Sat 06:20:31 AM 34.0431 -84.6906 276° West 127 146 8,600 1,900 Climbing Atlanta Center
Sat 06:21:31 AM 34.0406 -84.7358 266° West 134 154 10,500 1,600 Climbing Atlanta Center
Sat 06:22:31 AM 34.0361 -84.7808 263° West 145 167 11,800 1,450 Climbing Atlanta Center
Sat 06:23:31 AM 34.0317 -84.8358 264° West 155 178 13,400 1,400 Climbing Atlanta Center
Sat 06:24:31 AM 34.0314 -84.8886 270° West 161 185 14,600 1,200 Climbing Atlanta Center
Sat 06:25:31 AM 34.0289 -84.9436 267° West 161 185 15,800 1,150 Climbing Atlanta Center
Sat 06:26:31 AM 34.0286 -84.9964 270° West 161 185 16,900 1,150 Climbing Atlanta Center
Sat 06:27:31 AM 34.0258 -85.0514 272° West 161 185 18,100 1,100 Climbing Atlanta Center
Sat 06:28:31 AM 34.0233 -85.1039 267° West 161 185 19,100 1,050 Climbing Atlanta Center
Sat 06:29:31 AM 34.0231 -85.1567 270° West 156 180 20,200 950 Climbing Atlanta Center
Sat 06:30:31 AM 34.0203 -85.2092 266° West 156 180 21,000 800 Climbing Atlanta Center
Sat 06:31:31 AM 34.0178 -85.2594 267° West 156 180 21,800 750 Climbing Atlanta Center
Sat 06:32:31 AM 34.0172 -85.3144 269° West 161 185 22,500 650 Climbing Atlanta Center
Sat 06:33:31 AM 34.0147 -85.3669 267° West 161 185 23,100 250 Climbing Atlanta Center
Sat 06:34:31 AM 34.0075 -85.4344 263° West 172 198 23,000 250 Descending Atlanta Center
Sat 06:35:31 AM 34.0069 -85.4972 269° West 186 214 23,600 500 Climbing Atlanta Center
Sat 06:36:31 AM 34.0042 -85.5547 267° West 186 214 24,000 200 Climbing Atlanta Center
Sat 06:37:31 AM 34.0011 -85.6175 267° West 181 208 24,000  Level Atlanta Center
Sat 06:38:31 AM 33.9983 -85.6825 267° West 186 214 24,000  Level Atlanta Center
Sat 06:39:31 AM 33.9975 -85.7475 269° West 198 228 24,000  Level Atlanta Center
Sat 06:40:31 AM 33.9944 -85.8053 266° West 198 228 24,000  Level Atlanta Center
Sat 06:41:31 AM 33.9872 -85.8728 263° West 193 222 24,000  Level Atlanta Center
Sat 06:42:31 AM 33.9822 -85.9378 265° West 199 229 24,000  Level Atlanta Center
Sat 06:43:31 AM 33.9811 -86.0028 269° West 199 229 24,000  Level Atlanta Center
Sat 06:44:31 AM 33.9758 -86.0678 264° West 199 229 24,000  Level Atlanta Center
Sat 06:45:31 AM 33.9811 -86.1331 276° West 199 229 24,000  Level Atlanta Center
Sat 06:46:31 AM 33.9944 -86.2011 283° West 199 229 24,000  Level Atlanta Center
Sat 06:47:31 AM 33.9997 -86.2639 276° West 199 229 24,000  Level Atlanta Center
Sat 06:48:31 AM 34.0089 -86.3267 280° West 199 229 24,000  Level Atlanta Center
Sat 06:49:31 AM 34.0139 -86.3919 275° West 199 229 24,000  Level Atlanta Center
Sat 06:50:31 AM 34.0231 -86.4575 280° West 199 229 24,000  Level Atlanta Center
Sat 06:51:31 AM 34.0281 -86.5203 276° West 199 229 24,000  Level Atlanta Center
Sat 06:52:31 AM 34.0353 -86.5831 278° West 199 229 24,000  Level Atlanta Center
Sat 06:53:31 AM 34.0419 -86.6511 277° West 199 229 24,000  Level Atlanta Center
Sat 06:54:31 AM 34.0492 -86.7139 278° West 199 229 24,000  Level Atlanta Center
Sat 06:55:31 AM 34.0561 -86.7792 277° West 199 229 24,000  Level Atlanta Center
Sat 06:57:19 AM 34.0681 -86.8994 277° West 207 238 24,000  Level Memphis Center
Sat 06:58:19 AM 34.0783 -86.9692 280° West 207 238 24,000  Level Memphis Center
Sat 06:59:19 AM 34.0842 -87.0292 277° West 207 238 24,000  Level Memphis Center
Sat 07:00:19 AM 34.0903 -87.0992 276° West 197 227 24,000  Level Memphis Center
Sat 07:01:19 AM 34.0961 -87.1642 276° West 208 239 24,000  Level Memphis Center
Sat 07:02:19 AM 34.1039 -87.2267 279° West 198 228 24,000  Level Memphis Center
Sat 07:03:19 AM 34.1139 -87.2939 280° West 198 228 24,000  Level Memphis Center
Sat 07:04:19 AM 34.1178 -87.3614 274° West 203 234 24,000  Level Memphis Center
Sat 07:05:19 AM 34.1297 -87.4289 282° West 203 234 24,000  Level Memphis Center
Sat 07:06:19 AM 34.1356 -87.4989 276° West 203 234 24,000  Level Memphis Center
Sat 07:07:19 AM 34.1433 -87.5689 278° West 203 234 24,000  Level Memphis Center
Sat 07:08:19 AM 34.1511 -87.6364 278° West 198 228 24,000  Level Memphis Center
Sat 07:09:19 AM 34.1567 -87.7039 276° West 198 228 24,000  Level Memphis Center
Sat 07:10:19 AM 34.1622 -87.7667 276° West 198 228 24,000 -50 Level Memphis Center
Sat 07:11:19 AM 34.1700 -87.8342 278° West 198 228 23,900  Descending Memphis Center
Sat 07:12:19 AM 34.1797 -87.8992 280° West 198 228 24,000 50 Climbing Memphis Center
Sat 07:13:19 AM 34.1850 -87.9667 275° West 198 228 24,000  Level Memphis Center
Sat 07:14:19 AM 34.1906 -88.0344 276° West 198 228 24,000 -50 Level Memphis Center
Sat 07:15:19 AM 34.2000 -88.0994 280° West 198 228 23,900 -50 Descending Memphis Center
Sat 07:16:19 AM 34.2011 -88.1622 271° West 198 228 23,900 50 Level Memphis Center
Sat 07:17:19 AM 34.2108 -88.2297 280° West 203 234 24,000  Climbing Memphis Center
Sat 07:18:19 AM 34.2161 -88.3000 275° West 203 234 23,900 -50 Descending Memphis Center
Sat 07:19:19 AM 34.2233 -88.3650 278° West 203 234 23,900  Level Memphis Center
Sat 07:20:19 AM 34.2308 -88.4328 278° West 203 234 23,900 -650 Level Memphis Center
Sat 07:21:19 AM 34.2339 -88.5056 273° West 203 234 22,600 -1,400 Descending Memphis Center
Sat 07:22:19 AM 34.2436 -88.5883 278° West 227 261 21,100 -1,050 Descending Memphis Center
Sat 07:23:19 AM 34.2528 -88.6633 278° West 235 270 20,500 -750 Descending Memphis Center
Sat 07:24:19 AM 34.2767 -88.7233 296° West 215 247 19,600 -1,000 Descending Memphis Center
Sat 07:25:19 AM 34.2919 -88.7833 287° West 203 234 18,500 -1,400 Descending Memphis Center
Sat 07:26:19 AM 34.3011 -88.8436 280° West 177 204 16,800 -1,700 Descending Memphis Center
Sat 07:27:19 AM 34.3164 -88.8986 289° West 171 197 15,100 -1,700 Descending Memphis Center
Sat 07:28:19 AM 34.3339 -88.9586 289° West 182 209 13,400 -1,700 Descending Memphis Center
Sat 07:29:19 AM 34.3492 -89.0239 286° West 199 229 11,700 -1,600 Descending Memphis Center
Sat 07:30:19 AM 34.3706 -89.0864 293° West 206 237 10,200 -1,450 Descending Memphis Center
Sat 07:31:19 AM 34.3858 -89.1439 288° West 206 237 8,800 -1,400 Descending Memphis Center
Sat 07:32:19 AM 34.4033 -89.2169 286° West 211 243 7,400 -1,300 Descending Memphis Center
Sat 07:33:19 AM 34.4206 -89.2897 286° West 222 255 6,200 -1,100 Descending Memphis Center
Sat 07:34:19 AM 34.4400 -89.3572 289° West 221 254 5,200 -1,050 Descending Memphis Center
Sat 07:35:19 AM 34.4592 -89.4275 288° West 221 254 4,100 -600 Descending Memphis Center
Sat 07:36:19 AM 34.4764 -89.4981 287° West 221 254 4,000 -250 Descending Memphis Center
Sat 07:37:19 AM 34.4956 -89.5658 289° West 214 246 3,600 -500 Descending Memphis Center
Sat 07:38:19 AM 34.5128 -89.6336 287° West 209 241 3,000 -350 Descending Memphis Center
Sat 07:39:19 AM 34.5297 -89.6942 289° West 202 232 2,900 -50 Descending Memphis Center
Sat 07:40:19 AM 34.5406 -89.7444 285° West 179 206 2,900  Level Memphis Center
Sat 07:41:19 AM 34.5533 -89.7897 289° West 155 178 2,900  Level Memphis Center
Sat 07:42:19 AM 34.5639 -89.8350 286° West 150 173 2,900  Level Memphis Center
Sat 07:43:19 AM 34.6014 -89.8425 351° North 123 142 2,900 50 Level Memphis Center
Sat 07:44:19 AM 34.6306 -89.8194 33° Northeast 117 135 3,000  Climbing Memphis Center
Sat 07:45:19 AM 34.6056 -89.8044 154° Southeast 45 52 2,900  Descending Memphis Center
Sat 07:46:19 AM 34.5806 -89.8375 227° Southwest 63 72 3,000  Climbing Memphis Center
Sat 07:47:19 AM 34.5514 -89.8553 207° Southwest 112 129 2,900 -100 Descending Memphis Center

Login

Don't have an account? Register now (free) for customized features, flight alerts, and more!